Time,TemperatureF,DewpointF,PressureIn,WindDirection,WindDirectionDegrees,WindSpeedMPH,WindSpeedGustMPH,Humidity,HourlyPrecipIn,Conditions,Clouds,dailyrainin,SoftwareType,DateUTC
2013-10-07 00:12:00,53.0,27.0,29.87,South,176,3.0,5.0,36,0.00,,,0.00,,2013-10-07 07:12:00,
2013-10-07 00:22:00,52.0,26.0,29.87,South,182,2.0,5.0,36,0.00,,,0.00,,2013-10-07 07:22:00,
2013-10-07 00:42:00,52.0,26.0,29.87,SSE,158,2.0,5.0,36,0.00,,,0.00,,2013-10-07 07:42:00,
2013-10-07 00:52:00,52.0,26.0,29.87,SSE,158,2.0,3.0,36,0.00,,,0.00,,2013-10-07 07:52:00,
2013-10-07 01:21:00,53.0,27.0,29.87,South,191,3.0,5.0,36,0.00,,,0.00,,2013-10-07 08:21:00,
2013-10-07 01:42:00,53.0,27.0,29.87,South,191,3.0,5.0,36,0.00,,,0.00,,2013-10-07 08:42:00,
2013-10-07 01:52:00,53.0,27.0,29.84,SSW,194,3.0,5.0,36,0.00,,,0.00,,2013-10-07 08:52:00,
2013-10-07 02:11:00,52.0,26.0,29.84,SSE,158,3.0,6.0,36,0.00,,,0.00,,2013-10-07 09:11:00,
2013-10-07 02:21:00,52.0,26.0,29.84,SSE,163,3.0,5.0,36,0.00,,,0.00,,2013-10-07 09:21:00,
2013-10-07 02:43:00,52.0,26.0,29.87,South,180,2.0,3.0,36,0.00,,,0.00,,2013-10-07 09:43:00,
2013-10-07 02:53:00,52.0,26.0,29.84,SSW,199,2.0,3.0,36,0.00,,,0.00,,2013-10-07 09:53:00,
2013-10-07 03:13:00,52.0,26.0,29.84,South,171,2.0,3.0,36,0.00,,,0.00,,2013-10-07 10:13:00,
2013-10-07 03:23:00,52.0,26.0,29.84,SSE,158,3.0,3.0,36,0.00,,,0.00,,2013-10-07 10:23:00,
2013-10-07 03:42:00,52.0,26.0,29.84,SSE,163,2.0,3.0,36,0.00,,,0.00,,2013-10-07 10:42:00,
2013-10-07 03:53:00,52.0,26.0,29.84,South,177,2.0,3.0,36,0.00,,,0.00,,2013-10-07 10:53:00,
2013-10-07 04:12:00,51.0,25.0,29.81,SSE,158,3.0,5.0,36,0.00,,,0.00,,2013-10-07 11:12:00,
2013-10-07 04:22:00,51.0,25.0,29.84,SSE,166,3.0,5.0,36,0.00,,,0.00,,2013-10-07 11:22:00,
2013-10-07 04:42:00,52.0,25.0,29.84,South,184,2.0,3.0,35,0.00,,,0.00,,2013-10-07 11:42:00,
2013-10-07 04:52:00,53.0,25.0,29.84,South,182,2.0,6.0,34,0.00,,,0.00,,2013-10-07 11:52:00,
2013-10-07 05:12:00,53.0,25.0,29.84,SSE,160,3.0,5.0,34,0.00,,,0.00,,2013-10-07 12:12:00,
2013-10-07 05:21:00,52.0,25.0,29.81,South,182,2.0,6.0,34,0.00,,,0.00,,2013-10-07 12:21:00,
2013-10-07 05:42:00,53.0,25.0,29.81,South,189,3.0,6.0,33,0.00,,,0.00,,2013-10-07 12:42:00,
2013-10-07 05:52:00,52.0,24.0,29.81,South,182,3.0,5.0,33,0.00,,,0.00,,2013-10-07 12:52:00,
2013-10-07 06:11:00,52.0,24.0,29.81,SSW,202,2.0,6.0,33,0.00,,,0.00,,2013-10-07 13:11:00,
2013-10-07 06:21:00,52.0,24.0,29.81,SSW,208,2.0,5.0,33,0.00,,,0.00,,2013-10-07 13:21:00,
2013-10-07 06:42:00,52.0,23.0,29.81,SSW,202,2.0,5.0,32,0.00,,,0.00,,2013-10-07 13:42:00,
2013-10-07 06:52:00,51.0,22.0,29.81,SSE,158,1.0,2.0,32,0.00,,,0.00,,2013-10-07 13:52:00,
2013-10-07 07:11:00,50.0,22.0,29.84,SW,227,2.0,5.0,33,0.00,,,0.00,,2013-10-07 14:11:00,
2013-10-07 07:22:00,51.0,24.0,29.81,West,262,3.0,6.0,34,0.00,,,0.00,,2013-10-07 14:22:00,
2013-10-07 07:42:00,51.0,24.0,29.81,SW,225,5.0,7.0,35,0.00,,,0.00,,2013-10-07 14:42:00,
2013-10-07 07:52:00,50.0,24.0,29.81,SW,235,3.0,7.0,36,0.00,,,0.00,,2013-10-07 14:52:00,
2013-10-07 08:11:00,50.0,25.0,29.84,SSW,212,3.0,7.0,37,0.00,,,0.00,,2013-10-07 15:11:00,
2013-10-07 08:21:00,49.0,24.0,29.84,SSW,208,3.0,9.0,37,0.00,,,0.00,,2013-10-07 15:21:00,
2013-10-07 08:43:00,50.0,25.0,29.81,SSW,210,3.0,6.0,37,0.00,,,0.00,,2013-10-07 15:43:00,
2013-10-07 08:53:00,51.0,26.0,29.84,West,262,4.0,5.0,37,0.00,,,0.00,,2013-10-07 15:53:00,
2013-10-07 09:12:00,51.0,27.0,29.84,WSW,250,5.0,12.0,39,0.00,,,0.00,,2013-10-07 16:12:00,
2013-10-07 09:23:00,51.0,28.0,29.84,SW,222,4.0,12.0,40,0.00,,,0.00,,2013-10-07 16:23:00,
2013-10-07 09:53:00,51.0,31.0,29.84,WSW,251,6.0,9.0,46,0.00,,,0.00,,2013-10-07 16:53:00,
2013-10-07 10:12:00,51.0,33.0,29.84,West,264,5.0,10.0,50,0.00,,,0.00,,2013-10-07 17:12:00,
2013-10-07 10:22:00,51.0,34.0,29.84,WSW,248,5.0,12.0,52,0.00,,,0.00,,2013-10-07 17:22:00,
2013-10-07 10:52:00,51.0,36.0,29.87,West,268,6.0,9.0,56,0.00,,,0.00,,2013-10-07 17:52:00,
2013-10-07 11:12:00,50.0,38.0,29.87,WNW,292,6.0,9.0,64,0.00,,,0.00,,2013-10-07 18:12:00,
2013-10-07 11:22:00,48.0,38.0,29.87,NW,309,8.0,12.0,69,0.00,,,0.00,,2013-10-07 18:22:00,
2013-10-07 11:42:00,48.0,39.0,29.87,NW,317,6.0,13.0,71,0.00,,,0.00,,2013-10-07 18:42:00,
2013-10-07 11:52:00,48.0,39.0,29.87,NW,311,7.0,9.0,71,0.00,,,0.00,,2013-10-07 18:52:00,
2013-10-07 12:11:00,48.0,41.0,29.87,WNW,299,6.0,9.0,77,0.00,,,0.00,,2013-10-07 19:11:00,
2013-10-07 12:22:00,48.0,39.0,29.87,WNW,291,7.0,13.0,72,0.00,,,0.00,,2013-10-07 19:22:00,
2013-10-07 12:42:00,50.0,39.0,29.90,WNW,286,7.0,10.0,67,0.00,,,0.00,,2013-10-07 19:42:00,
2013-10-07 12:52:00,52.0,39.0,29.90,West,277,7.0,10.0,60,0.00,,,0.00,,2013-10-07 19:52:00,
2013-10-07 13:12:00,53.0,35.0,29.90,WNW,299,8.0,14.0,51,0.00,,,0.00,,2013-10-07 20:12:00,
2013-10-07 13:22:00,52.0,34.0,29.90,WNW,303,7.0,12.0,51,0.00,,,0.00,,2013-10-07 20:22:00,
2013-10-07 13:43:00,49.0,34.0,29.87,NNW,328,5.0,7.0,56,0.00,,,0.00,,2013-10-07 20:43:00,
2013-10-07 13:52:00,49.0,33.0,29.90,NW,316,1.0,6.0,54,0.00,,,0.00,,2013-10-07 20:52:00,
2013-10-07 14:12:00,50.0,35.0,29.87,WNW,289,3.0,6.0,56,0.00,,,0.00,,2013-10-07 21:12:00,
2013-10-07 14:23:00,50.0,34.0,29.90,West,273,6.0,10.0,53,0.00,,,0.00,,2013-10-07 21:23:00,
2013-10-07 14:43:00,50.0,33.0,29.90,WNW,303,7.0,10.0,52,0.00,,,0.00,,2013-10-07 21:43:00,
2013-10-07 14:54:00,52.0,33.0,29.90,WNW,296,8.0,13.0,48,0.00,,,0.00,,2013-10-07 21:54:00,
2013-10-07 15:13:00,51.0,33.0,29.87,NW,311,7.0,13.0,49,0.00,,,0.00,,2013-10-07 22:13:00,
2013-10-07 15:24:00,51.0,31.0,29.90,NW,309,8.0,13.0,47,0.00,,,0.00,,2013-10-07 22:24:00,
2013-10-07 15:43:00,51.0,31.0,29.90,West,281,6.0,13.0,46,0.00,,,0.00,,2013-10-07 22:43:00,
2013-10-07 15:53:00,52.0,31.0,29.90,WNW,282,7.0,13.0,45,0.00,,,0.00,,2013-10-07 22:53:00,
2013-10-07 16:22:00,52.0,29.0,29.90,West,259,6.0,9.0,41,0.00,,,0.00,,2013-10-07 23:22:00,
2013-10-07 16:52:00,52.0,31.0,29.90,WNW,285,9.0,15.0,44,0.00,,,0.00,,2013-10-07 23:52:00,
2013-10-07 17:11:00,50.0,29.0,29.90,WNW,292,9.0,15.0,44,0.00,,,0.00,,2013-10-08 00:11:00,
2013-10-07 17:21:00,49.0,29.0,29.90,NW,311,7.0,14.0,45,0.00,,,0.00,,2013-10-08 00:21:00,
2013-10-07 17:42:00,49.0,29.0,29.90,WNW,292,7.0,12.0,46,0.00,,,0.00,,2013-10-08 00:42:00,
2013-10-07 17:52:00,49.0,30.0,29.90,NNW,327,7.0,12.0,47,0.00,,,0.00,,2013-10-08 00:52:00,
2013-10-07 18:12:00,48.0,30.0,29.90,WNW,292,6.0,10.0,50,0.00,,,0.00,,2013-10-08 01:12:00,
2013-10-07 18:21:00,48.0,31.0,29.90,WNW,296,7.0,9.0,52,0.00,,,0.00,,2013-10-08 01:21:00,
2013-10-07 18:42:00,47.0,33.0,29.90,NW,307,7.0,8.0,57,0.00,,,0.00,,2013-10-08 01:42:00,
2013-10-07 18:52:00,47.0,31.0,29.90,WNW,294,7.0,10.0,54,0.00,,,0.00,,2013-10-08 01:52:00,
2013-10-07 19:11:00,46.0,32.0,29.90,WNW,294,7.0,10.0,58,0.00,,,0.00,,2013-10-08 02:11:00,
2013-10-07 19:21:00,46.0,32.0,29.90,NW,308,7.0,9.0,57,0.00,,,0.00,,2013-10-08 02:21:00,
2013-10-07 19:42:00,46.0,31.0,29.90,West,278,5.0,8.0,55,0.00,,,0.00,,2013-10-08 02:42:00,
2013-10-07 19:52:00,46.0,30.0,29.90,WNW,286,6.0,9.0,54,0.00,,,0.00,,2013-10-08 02:52:00,
2013-10-07 20:11:00,45.0,30.0,29.90,WSW,250,5.0,8.0,56,0.00,,,0.00,,2013-10-08 03:11:00,
2013-10-07 20:22:00,45.0,30.0,29.90,WSW,257,6.0,8.0,56,0.00,,,0.00,,2013-10-08 03:22:00,
2013-10-07 20:55:00,45.0,31.0,29.90,WSW,248,4.0,6.0,58,0.00,,,0.00,,2013-10-08 03:55:00,
2013-10-07 21:14:00,44.0,31.0,29.90,WNW,292,6.0,9.0,60,0.00,,,0.00,,2013-10-08 04:14:00,
2013-10-07 21:23:00,44.0,31.0,29.90,WNW,292,6.0,9.0,60,0.00,,,0.00,,2013-10-08 04:23:00,
2013-10-07 21:43:00,43.0,31.0,29.90,WNW,286,5.0,9.0,62,0.00,,,0.00,,2013-10-08 04:43:00,
2013-10-07 21:53:00,43.0,32.0,29.90,WNW,292,5.0,7.0,64,0.00,,,0.00,,2013-10-08 04:53:00,
2013-10-07 22:13:00,43.0,32.0,29.90,WNW,292,6.0,8.0,65,0.00,,,0.00,,2013-10-08 05:13:00,
2013-10-07 22:22:00,42.0,31.0,29.90,WNW,292,6.0,9.0,66,0.00,,,0.00,,2013-10-08 05:22:00,
2013-10-07 22:42:00,41.0,32.0,29.90,WNW,286,7.0,9.0,70,0.00,,,0.00,,2013-10-08 05:42:00,
2013-10-07 22:52:00,41.0,32.0,29.90,WNW,299,7.0,10.0,70,0.00,,,0.00,,2013-10-08 05:52:00,
2013-10-07 23:12:00,41.0,31.0,29.90,WNW,292,2.0,9.0,68,0.00,,,0.00,,2013-10-08 06:12:00,
2013-10-07 23:22:00,40.0,30.0,29.93,SSE,158,0.0,2.0,66,0.00,,,0.00,,2013-10-08 06:22:00,
2013-10-07 23:52:00,40.0,31.0,29.90,NW,306,4.0,6.0,70,0.00,,,0.00,,2013-10-08 06:52:00,